Terminal Aerodrome Forecast
Issued by NWS

Home | Current Version | Previous Version | Text Only | Print | Product List | Glossary On
Versions: 1 2 3 4 5 6 7 8 9 10 11 12 13 14 15 16 17 18
000
FTUS43 KICT 201700 RRA
TAFHUT
TAF
KHUT 201742Z 2018/2118 18015G23KT 5SM -RA SCT050 BKN110
      TEMPO 2018/2020 BKN050
     FM202000 17015KT P6SM VCSH BKN050
     FM210000 17010KT P6SM VCTS SCT030 BKN050CB
     FM210400 22012KT P6SM VCSH BKN030
     FM211300 34014KT P6SM VCSH BKN025
     FM211500 36012KT P6SM SCT025 BKN060=

USA.gov is the U.S. government's official web portal to all federal, state and local government web resources and services.